Tuesday, April 24, 2018, 4:26 AM EDT
Back to Local

KHWV, Shirley Brookhaven Airport

Location: Shirley, NY, United States Lat: 40.817
Local Time: 4:26 AM EDT ( 8:26 GMT) Lon: -72.867
Time Zone: US/Eastern Elev: 82 ft

Show me the last for .
Show Decoded

2018-04-24 03:56 METAR KHWV 240756Z AUTO 00000KT 8SM CLR 02/01 A3042 RMK AO2 SLP301 T00170011 =
2018-04-24 02:56 METAR KHWV 240656Z AUTO 00000KT 8SM CLR 02/02 A3043 RMK AO2 SLP304 T00220017 =
2018-04-24 01:56 METAR KHWV 240556Z AUTO 00000KT 9SM CLR 03/02 A3043 RMK AO2 SLP305 T00280017
                 10094 20028 58010 =
2018-04-24 00:56 METAR KHWV 240456Z AUTO 00000KT 10SM CLR 03/02 A3045 RMK AO2 SLP309 T00330022
                 401500000 =
2018-04-23 23:56 METAR KHWV 240356Z AUTO 00000KT 10SM CLR 04/03 A3046 RMK AO2 SLP314 T00390033 =
2018-04-23 22:56 METAR KHWV 240256Z AUTO 00000KT 10SM CLR 04/03 A3046 RMK AO2 SLP315 T00440033
                 51001 =
2018-04-23 21:56 METAR KHWV 240156Z AUTO 15003KT 10SM CLR 07/04 A3046 RMK AO2 SLP315 T00670039 =
2018-04-23 20:56 METAR KHWV 240056Z AUTO 18005KT 10SM CLR 08/04 A3047 RMK AO2 SLP316 T00780044 =
2018-04-23 19:56 METAR KHWV 232356Z AUTO 19007KT 10SM CLR 09/03 A3046 RMK AO2 SLP314 T00940028
                 10144 20094 55002 =
2018-04-23 18:56 METAR KHWV 232256Z AUTO 20004KT 10SM CLR 11/00 A3045 RMK AO2 SLP311 T01060000 =
2018-04-23 17:56 METAR KHWV 232156Z AUTO 19007KT 10SM CLR 12/01 A3046 RMK AO2 SLP314 T01220006 =
2018-04-23 16:56 METAR KHWV 232056Z AUTO 17009KT 10SM CLR 13/M02 A3047 RMK AO2 SLP316 T01331022
                 57006 =
2018-04-23 15:56 METAR KHWV 231956Z AUTO 16007KT 10SM CLR 14/M03 A3047 RMK AO2 SLP318 T01441028 =
2018-04-23 14:56 METAR KHWV 231856Z AUTO 15012KT 10SM CLR 14/M06 A3048 RMK AO2 SLP321 T01391061 =
2018-04-23 13:56 METAR KHWV 231756Z AUTO 16014KT 10SM CLR 14/M03 A3048 RMK AO2 SLP322 T01441033
                 10150 20083 58008 =
2018-04-23 12:56 METAR KHWV 231656Z AUTO 12008KT 080V150 10SM CLR 14/M05 A3049 RMK AO2 SLP326
                 T01391050 =
2018-04-23 11:56 METAR KHWV 231556Z AUTO 15015G22KT 10SM CLR 14/M03 A3051 RMK AO2 SLP331
                 T01391028 =
2018-04-23 10:56 METAR KHWV 231456Z AUTO 14012G19KT 10SM CLR 13/M04 A3051 RMK AO2 SLP330
                 T01331039 53008 =
2018-04-23 09:56 METAR KHWV 231356Z AUTO VRB05KT 10SM CLR 14/M05 A3048 RMK AO2 SLP322 T01441050 =
2018-04-23 08:56 METAR KHWV 231256Z AUTO VRB05KT 10SM CLR 13/M03 A3047 RMK AO2 SLP318 T01331033 =
2018-04-23 07:56 METAR KHWV 231156Z AUTO 02004KT 10SM CLR 08/01 A3048 RMK AO2 SLP322 T00830006
                 10083 20000 51014 =
2018-04-23 06:56 METAR KHWV 231056Z AUTO 00000KT 10SM CLR 01/00 A3047 RMK AO2 SLP317 T00110000 =
2018-04-23 05:56 METAR KHWV 230956Z AUTO 00000KT 10SM CLR 01/M01 A3045 RMK AO2 SLP312 T00061011 =
2018-04-23 04:56 METAR KHWV 230856Z AUTO 00000KT 10SM CLR 02/M01 A3044 RMK AO2 SLP307 T00221006
                 53011 =

Support USWX by starting your Amazon purchase here.